Amelia Island, Florida
Current Conditions -  °F | °C
As of 4:35 PM on Saturday 22 Nov 2014 (Local Time) from KFHB Reporting Station
Overcast Overcast  
Wind Chill: 22°   Ceiling: 4200
Heat Index: 22°   Visibility: 7mi
Dew Point: 17°   Wind: 12mph
Humidity: 73%   Direction: 80°E
Pressure: 30.22"   Gusts: NA
Location:  30.6056°N, 81.5268°W
Report Text: KFHB 222135Z AUTO 08010KT 7SM SCT036 OVC042 22/17 A3022 RMK AO1
Loading
Personal Weather Stations






























Interactive Weather Map New forecast layout! Learn more

10-Day Weather Forecast

Advertisements
Track Severe Weather on mobile